createdAt,value
2023-04-18T00:01:17.982Z,12.48
2023-04-18T00:03:45.962Z,12.49
2023-04-18T00:06:14.512Z,12.46
2023-04-18T00:08:42.173Z,12.40
2023-04-18T00:11:09.668Z,12.36
2023-04-18T00:13:38.642Z,12.36
2023-04-18T00:16:08.079Z,12.36
2023-04-18T00:18:37.179Z,12.35
2023-04-18T00:21:04.956Z,12.34
2023-04-18T00:23:34.402Z,12.30
2023-04-18T00:26:02.111Z,12.28
2023-04-18T00:28:29.757Z,12.25
2023-04-18T00:30:57.437Z,12.28
2023-04-18T00:33:25.082Z,12.25
2023-04-18T00:35:54.702Z,12.23
2023-04-18T00:38:22.279Z,12.24
2023-04-18T00:40:49.884Z,12.28
2023-04-18T00:43:17.710Z,12.26
2023-04-18T00:45:45.306Z,12.27
2023-04-18T00:48:12.968Z,12.31
2023-04-18T00:50:41.762Z,12.25
2023-04-18T00:53:11.327Z,12.18
2023-04-18T00:55:39.849Z,12.10
2023-04-18T00:58:07.536Z,12.05
2023-04-18T01:00:35.578Z,12.02
2023-04-18T01:03:03.604Z,12.04
2023-04-18T01:05:31.348Z,12.03
2023-04-18T01:08:01.238Z,12.03
2023-04-18T01:10:30.062Z,12.00
2023-04-18T01:13:15.164Z,11.97
2023-04-18T01:15:44.313Z,11.93
2023-04-18T01:18:13.237Z,11.95
2023-04-18T01:20:44.039Z,11.96
2023-04-18T01:23:11.693Z,11.95
2023-04-18T01:25:39.443Z,11.90
2023-04-18T01:28:07.549Z,11.83
2023-04-18T01:30:35.283Z,11.78
2023-04-18T01:33:05.051Z,11.74
2023-04-18T01:35:34.070Z,11.71
2023-04-18T01:38:01.899Z,11.72
2023-04-18T01:40:30.272Z,11.69
2023-04-18T01:42:57.847Z,11.65
2023-04-18T01:45:25.516Z,11.65
2023-04-18T01:47:53.130Z,11.62
2023-04-18T01:50:20.887Z,11.57
2023-04-18T01:52:48.598Z,11.49
2023-04-18T01:55:16.923Z,11.46
2023-04-18T01:57:44.617Z,11.43
2023-04-18T02:00:12.775Z,11.38
2023-04-18T02:02:43.624Z,11.36
2023-04-18T02:05:11.477Z,11.35
2023-04-18T02:07:41.197Z,11.32
2023-04-18T02:10:11.101Z,11.31
2023-04-18T02:12:39.052Z,11.29
2023-04-18T02:15:07.216Z,11.26
2023-04-18T02:17:37.415Z,11.25
2023-04-18T02:20:05.580Z,11.20
2023-04-18T02:22:33.187Z,11.17
2023-04-18T02:25:02.555Z,11.17
2023-04-18T02:27:31.842Z,11.16
2023-04-18T02:29:59.492Z,11.14
2023-04-18T02:32:27.086Z,11.12
2023-04-18T02:34:54.605Z,11.13
2023-04-18T02:37:22.129Z,11.08
2023-04-18T02:39:51.081Z,11.01
2023-04-18T02:42:18.670Z,10.95
2023-04-18T02:44:46.219Z,10.90
2023-04-18T02:47:13.801Z,10.80
2023-04-18T02:49:43.573Z,10.74
2023-04-18T02:52:11.241Z,10.74
2023-04-18T02:54:38.809Z,10.71
2023-04-18T02:57:11.174Z,10.72
2023-04-18T02:59:58.980Z,10.71
2023-04-18T03:02:49.713Z,10.70
2023-04-18T03:05:35.986Z,10.67
2023-04-18T03:08:05.981Z,10.69
2023-04-18T03:10:34.911Z,10.62
2023-04-18T03:13:02.761Z,10.52
2023-04-18T03:15:33.318Z,10.44
2023-04-18T03:18:01.517Z,10.41
2023-04-18T03:20:33.103Z,10.39
2023-04-18T03:23:00.862Z,10.40
2023-04-18T03:25:30.656Z,10.46
2023-04-18T03:27:58.937Z,10.48
2023-04-18T03:30:27.875Z,10.46
2023-04-18T03:32:58.798Z,10.45
2023-04-18T03:35:26.565Z,10.43
2023-04-18T03:37:54.216Z,10.48
2023-04-18T03:40:27.092Z,10.52
2023-04-18T03:43:02.349Z,10.46
2023-04-18T03:45:30.308Z,10.42
2023-04-18T03:47:57.934Z,10.39
2023-04-18T03:50:26.170Z,10.33
2023-04-18T03:52:55.732Z,10.22
2023-04-18T03:55:23.327Z,10.13
2023-04-18T03:57:51.619Z,10.04
2023-04-18T04:00:28.076Z,9.92
2023-04-18T04:03:02.085Z,9.83
2023-04-18T04:05:30.145Z,9.75
2023-04-18T04:07:57.908Z,9.67
2023-04-18T04:10:25.668Z,9.60
2023-04-18T04:12:54.214Z,9.53
2023-04-18T04:15:22.130Z,9.45
2023-04-18T04:18:02.166Z,9.42
2023-04-18T04:20:30.717Z,9.36
2023-04-18T04:23:10.693Z,9.26
2023-04-18T04:25:40.144Z,9.20
2023-04-18T04:28:16.113Z,9.12
2023-04-18T04:30:53.347Z,9.00
2023-04-18T04:33:28.469Z,8.86
2023-04-18T04:36:01.360Z,8.81
2023-04-18T04:38:31.281Z,8.79
2023-04-18T04:40:59.854Z,8.74
2023-04-18T04:43:28.870Z,8.72
2023-04-18T04:45:57.834Z,8.65
2023-04-18T04:48:25.553Z,8.58
2023-04-18T04:50:56.774Z,8.57
2023-04-18T04:53:26.718Z,8.58
2023-04-18T04:55:54.703Z,8.56
2023-04-18T04:58:23.365Z,8.49
2023-04-18T05:00:59.784Z,8.39
2023-04-18T05:03:27.922Z,8.33
2023-04-18T05:05:55.688Z,8.30
2023-04-18T05:08:23.290Z,8.26
2023-04-18T05:10:51.190Z,8.30
2023-04-18T05:13:18.857Z,8.29
2023-04-18T05:15:46.455Z,8.25
2023-04-18T05:18:14.486Z,8.17
2023-04-18T05:20:42.039Z,8.15
2023-04-18T05:23:09.606Z,8.16
2023-04-18T05:25:37.244Z,8.14
2023-04-18T05:28:04.898Z,8.14
2023-04-18T05:30:32.448Z,8.11
2023-04-18T05:33:00.117Z,8.12
2023-04-18T05:35:27.827Z,8.17
2023-04-18T05:37:55.494Z,8.25
2023-04-18T05:40:23.235Z,8.27
2023-04-18T05:42:50.819Z,8.29
2023-04-18T05:45:18.556Z,8.28
2023-04-18T05:47:46.244Z,8.30
2023-04-18T05:50:13.803Z,8.31
2023-04-18T05:52:41.329Z,8.30
2023-04-18T05:55:09.334Z,8.33
2023-04-18T05:57:37.252Z,8.31
2023-04-18T06:00:11.473Z,8.26
2023-04-18T06:02:42.139Z,8.25
2023-04-18T06:05:10.267Z,8.24
2023-04-18T06:07:38.221Z,8.27
2023-04-18T06:10:09.289Z,8.30
2023-04-18T06:12:37.305Z,8.27
2023-04-18T06:15:05.835Z,8.22
2023-04-18T06:17:34.976Z,8.23
2023-04-18T06:20:04.449Z,8.21
2023-04-18T06:22:34.062Z,8.20
2023-04-18T06:25:01.784Z,8.27
2023-04-18T06:27:31.672Z,8.34
2023-04-18T06:29:59.779Z,8.42
2023-04-18T06:32:27.516Z,8.46
2023-04-18T06:34:55.486Z,8.55
2023-04-18T06:37:23.594Z,8.57
2023-04-18T06:39:51.341Z,8.57
2023-04-18T06:42:21.593Z,8.61
2023-04-18T06:44:50.513Z,8.66
2023-04-18T06:47:18.527Z,8.70
2023-04-18T06:49:46.110Z,8.77
2023-04-18T06:52:13.839Z,8.84
2023-04-18T06:54:41.425Z,8.85
2023-04-18T06:57:09.414Z,8.92
2023-04-18T06:59:37.565Z,8.92
2023-04-18T07:02:05.195Z,8.92
2023-04-18T07:04:32.843Z,8.87
2023-04-18T07:07:01.846Z,8.87
2023-04-18T07:09:29.670Z,8.93
2023-04-18T07:11:57.276Z,8.97
2023-04-18T07:14:25.302Z,9.02
2023-04-18T07:16:52.903Z,9.06
2023-04-18T07:19:20.603Z,9.08
2023-04-18T07:21:48.390Z,9.10
2023-04-18T07:24:16.373Z,9.15
2023-04-18T07:26:44.121Z,9.13
2023-04-18T07:29:11.792Z,9.15
2023-04-18T07:31:39.450Z,9.15
2023-04-18T07:34:07.112Z,9.18
2023-04-18T07:36:34.699Z,9.25
2023-04-18T07:39:02.257Z,9.31
2023-04-18T07:41:29.859Z,9.39
2023-04-18T07:43:57.465Z,9.39
2023-04-18T07:46:25.089Z,9.41
2023-04-18T07:48:52.641Z,9.47
2023-04-18T07:51:20.583Z,9.55
2023-04-18T07:53:48.226Z,9.60
2023-04-18T07:56:15.902Z,9.70
2023-04-18T07:58:43.515Z,9.74
2023-04-18T08:01:14.194Z,9.79
2023-04-18T08:03:42.073Z,9.87
2023-04-18T08:06:10.045Z,9.94
2023-04-18T08:08:37.835Z,9.96
2023-04-18T08:11:05.488Z,9.94
2023-04-18T08:13:33.147Z,9.94
2023-04-18T08:16:02.359Z,9.94
2023-04-18T08:18:30.248Z,9.90
2023-04-18T08:20:57.789Z,9.91
2023-04-18T08:23:25.504Z,9.89
2023-04-18T08:25:53.064Z,9.86
2023-04-18T08:28:21.011Z,9.91
2023-04-18T08:30:57.276Z,10.00
2023-04-18T08:33:26.505Z,10.04
2023-04-18T08:35:54.423Z,10.12
2023-04-18T08:38:22.867Z,10.22
2023-04-18T08:40:50.540Z,10.31
2023-04-18T08:43:18.251Z,10.33
2023-04-18T08:45:47.388Z,10.41
2023-04-18T08:48:16.463Z,10.47
2023-04-18T08:50:44.987Z,10.47
2023-04-18T08:53:12.701Z,10.43
2023-04-18T08:55:40.686Z,10.42
2023-04-18T08:58:08.259Z,10.42
2023-04-18T09:00:35.817Z,10.41
2023-04-18T09:03:04.041Z,10.46
2023-04-18T09:05:31.799Z,10.49
2023-04-18T09:07:59.431Z,10.57
2023-04-18T09:10:29.019Z,10.64
2023-04-18T09:12:58.037Z,10.68
2023-04-18T09:15:27.477Z,10.64
2023-04-18T09:17:58.037Z,10.61
2023-04-18T09:20:41.359Z,10.52
2023-04-18T09:23:11.583Z,10.51
2023-04-18T09:25:44.740Z,10.63
2023-04-18T09:28:29.321Z,10.71
2023-04-18T09:31:09.668Z,10.77
2023-04-18T09:33:38.652Z,10.88
2023-04-18T09:36:21.024Z,10.98
2023-04-18T09:38:49.901Z,11.08
2023-04-18T09:41:20.756Z,11.16
2023-04-18T09:43:49.889Z,11.24
2023-04-18T09:46:22.669Z,11.23
2023-04-18T09:48:50.570Z,11.14
2023-04-18T09:51:18.467Z,11.10
2023-04-18T09:53:47.654Z,11.13
2023-04-18T09:56:23.903Z,11.07
2023-04-18T09:58:57.126Z,11.00
2023-04-18T10:01:29.620Z,10.95
2023-04-18T10:03:57.880Z,10.91
2023-04-18T10:06:27.999Z,10.88
2023-04-18T10:08:56.311Z,10.94
2023-04-18T10:11:24.404Z,11.06
2023-04-18T10:13:57.540Z,11.16
2023-04-18T10:16:26.372Z,11.18
2023-04-18T10:18:54.020Z,11.18
2023-04-18T10:21:21.813Z,11.19
2023-04-18T10:23:50.410Z,11.16
2023-04-18T10:26:18.109Z,11.17
2023-04-18T10:28:57.264Z,11.26
2023-04-18T10:31:29.193Z,11.37
2023-04-18T10:34:17.696Z,11.52
2023-04-18T10:37:03.832Z,11.61
2023-04-18T10:39:46.700Z,11.78
2023-04-18T10:42:14.590Z,11.83
2023-04-18T10:44:42.095Z,12.03
2023-04-18T10:47:20.730Z,12.48
2023-04-18T10:49:55.067Z,12.77
2023-04-18T10:52:22.762Z,12.82
2023-04-18T10:55:05.721Z,12.81
2023-04-18T10:57:43.713Z,12.94
2023-04-18T11:00:14.069Z,13.00
2023-04-18T11:02:50.253Z,13.07
2023-04-18T11:05:26.867Z,13.20
2023-04-18T11:07:54.893Z,13.91
2023-04-18T11:10:25.610Z,15.18
2023-04-18T11:12:54.881Z,16.33
2023-04-18T11:15:24.001Z,17.08
2023-04-18T11:18:05.128Z,17.67
2023-04-18T11:20:46.073Z,18.33
2023-04-18T11:23:23.116Z,18.99
2023-04-18T11:25:56.541Z,19.36
2023-04-18T11:28:27.646Z,19.69
2023-04-18T11:31:00.274Z,20.06
2023-04-18T11:33:29.471Z,20.39
2023-04-18T11:36:42.267Z,20.81
2023-04-18T11:52:35.588Z,21.89
2023-04-18T11:55:27.629Z,21.77
2023-04-18T11:58:15.992Z,22.08
2023-04-18T12:00:43.641Z,22.43
2023-04-18T12:03:19.021Z,22.70
2023-04-18T12:05:47.101Z,22.84
2023-04-18T12:08:20.751Z,23.01
2023-04-18T12:23:45.201Z,23.31
2023-04-18T12:26:21.220Z,23.20
2023-04-18T12:28:52.916Z,23.17
2023-04-18T12:34:26.692Z,23.04
2023-04-18T12:36:54.351Z,22.84
2023-04-18T12:39:21.943Z,22.66
2023-04-18T12:41:50.003Z,22.78
2023-04-18T12:44:17.765Z,22.90
2023-04-18T12:46:45.423Z,22.84
2023-04-18T12:49:31.056Z,22.83
2023-04-18T12:51:58.852Z,22.66
2023-04-18T12:54:26.538Z,22.52
2023-04-18T12:56:54.227Z,22.60
2023-04-18T12:59:21.809Z,22.98
2023-04-18T13:01:49.442Z,23.03
2023-04-18T13:04:17.252Z,22.95
2023-04-18T13:06:45.344Z,22.86
2023-04-18T13:09:13.092Z,22.81
2023-04-18T13:11:40.850Z,22.61
2023-04-18T13:14:08.572Z,22.67
2023-04-18T13:16:36.306Z,22.75
2023-04-18T13:19:03.889Z,22.57
2023-04-18T13:21:31.486Z,22.45
2023-04-18T13:23:59.170Z,22.32
2023-04-18T13:26:26.974Z,22.37
2023-04-18T13:28:54.678Z,22.56
2023-04-18T13:31:22.266Z,22.64
2023-04-18T13:33:49.834Z,22.47
2023-04-18T13:36:18.045Z,22.27
2023-04-18T13:38:46.319Z,22.17
2023-04-18T13:41:13.945Z,22.09
2023-04-18T13:43:41.557Z,22.13
2023-04-18T13:46:09.268Z,22.09
2023-04-18T13:48:36.973Z,21.82
2023-04-18T13:51:04.783Z,21.76
2023-04-18T13:53:32.640Z,21.75
2023-04-18T13:56:01.827Z,21.49
2023-04-18T13:58:29.720Z,21.27
2023-04-18T14:00:57.334Z,21.08
2023-04-18T14:03:25.172Z,20.92
2023-04-18T14:05:52.928Z,20.71
2023-04-18T14:08:21.068Z,20.46
2023-04-18T14:10:48.636Z,20.19
2023-04-18T14:13:16.908Z,19.95
2023-04-18T14:15:44.516Z,19.80
2023-04-18T14:18:12.163Z,19.61
2023-04-18T14:20:39.866Z,19.47
2023-04-18T14:23:07.401Z,19.33
2023-04-18T14:25:35.166Z,19.16
2023-04-18T14:28:09.698Z,19.08
2023-04-18T14:30:39.225Z,18.90
2023-04-18T14:33:09.205Z,18.60
2023-04-18T14:35:37.240Z,18.45
2023-04-18T14:38:04.829Z,18.39
2023-04-18T14:40:33.099Z,18.33
2023-04-18T14:43:00.819Z,18.11
2023-04-18T14:45:28.467Z,17.81
2023-04-18T14:47:56.154Z,17.62
2023-04-18T14:50:23.983Z,17.46
2023-04-18T14:52:51.578Z,17.26
2023-04-18T14:55:20.226Z,17.11
2023-04-18T14:57:48.138Z,16.95
2023-04-18T15:00:16.039Z,16.84
2023-04-18T15:02:44.038Z,16.74
2023-04-18T15:05:12.519Z,16.72
2023-04-18T15:07:41.249Z,16.68
2023-04-18T15:10:10.458Z,16.65
2023-04-18T15:12:38.152Z,16.58
2023-04-18T15:15:06.694Z,16.59
2023-04-18T15:17:34.195Z,16.61
2023-04-18T15:20:01.987Z,16.51
2023-04-18T15:22:29.785Z,16.43
2023-04-18T15:24:57.903Z,16.33
2023-04-18T15:27:25.611Z,16.33
2023-04-18T15:29:53.567Z,16.33
2023-04-18T15:32:22.126Z,16.31
2023-04-18T15:34:49.779Z,16.24
2023-04-18T15:37:17.391Z,16.19
2023-04-18T15:39:45.027Z,16.20
2023-04-18T15:42:12.712Z,16.27
2023-04-18T15:44:40.447Z,16.17
2023-04-18T15:47:08.133Z,16.03
2023-04-18T15:49:35.971Z,16.01
2023-04-18T15:52:03.733Z,15.97
2023-04-18T15:54:31.281Z,15.86
2023-04-18T15:56:58.901Z,15.73
2023-04-18T15:59:26.488Z,15.65
2023-04-18T16:01:54.192Z,15.64
2023-04-18T16:04:21.907Z,15.61
2023-04-18T16:06:49.608Z,15.59
2023-04-18T16:09:17.113Z,15.55
2023-04-18T16:11:44.693Z,15.47
2023-04-18T16:14:12.730Z,15.42
2023-04-18T16:16:40.479Z,15.40
2023-04-18T16:19:08.089Z,15.34
2023-04-18T16:21:35.711Z,15.23
2023-04-18T16:24:03.292Z,15.19
2023-04-18T16:26:30.869Z,15.19
2023-04-18T16:28:58.623Z,15.14
2023-04-18T16:31:26.354Z,15.08
2023-04-18T16:33:54.105Z,15.04
2023-04-18T16:36:21.815Z,15.05
2023-04-18T16:38:49.411Z,15.05
2023-04-18T16:41:16.944Z,15.00
2023-04-18T16:43:44.567Z,15.01
2023-04-18T16:46:13.835Z,15.02
2023-04-18T16:48:41.820Z,15.04
2023-04-18T16:51:09.369Z,15.03
2023-04-18T16:53:36.984Z,14.99
2023-04-18T16:56:04.853Z,14.98
2023-04-18T16:58:32.844Z,14.94
2023-04-18T17:01:02.444Z,14.91
2023-04-18T17:03:30.260Z,14.93
2023-04-18T17:05:58.016Z,14.94
2023-04-18T17:08:27.167Z,14.89
2023-04-18T17:10:55.469Z,14.85
2023-04-18T17:13:26.913Z,14.83
2023-04-18T17:15:54.762Z,14.80
2023-04-18T17:18:22.440Z,14.80
2023-04-18T17:20:50.063Z,14.76
2023-04-18T17:23:19.392Z,14.66
2023-04-18T17:25:47.714Z,14.55
2023-04-18T17:28:15.398Z,14.51
2023-04-18T17:30:43.047Z,14.47
2023-04-18T17:33:11.156Z,14.41
2023-04-18T17:35:41.747Z,14.36
2023-04-18T17:38:10.676Z,14.24
2023-04-18T17:40:39.480Z,14.13
2023-04-18T17:43:07.088Z,14.09
2023-04-18T17:45:34.689Z,14.01
2023-04-18T17:48:03.136Z,13.97
2023-04-18T17:50:31.026Z,13.94
2023-04-18T17:52:58.655Z,13.91
2023-04-18T17:55:26.695Z,13.86
2023-04-18T17:57:54.252Z,13.76
2023-04-18T18:00:21.944Z,13.66
2023-04-18T18:02:49.728Z,13.57
2023-04-18T18:05:17.412Z,13.55
2023-04-18T18:07:47.714Z,13.51
2023-04-18T18:10:22.414Z,13.38
2023-04-18T18:12:50.169Z,13.26
2023-04-18T18:15:18.280Z,13.23
2023-04-18T18:17:48.858Z,13.13
2023-04-18T18:20:17.262Z,13.02
2023-04-18T18:22:44.799Z,12.97
2023-04-18T18:25:13.267Z,12.91
2023-04-18T18:27:40.987Z,12.80
2023-04-18T18:30:09.005Z,12.74
2023-04-18T18:32:36.614Z,12.67
2023-04-18T18:35:06.073Z,12.61
2023-04-18T18:37:33.791Z,12.52
2023-04-18T18:40:04.992Z,12.47
2023-04-18T18:42:32.604Z,12.41
2023-04-18T18:45:01.695Z,12.34
2023-04-18T18:47:30.663Z,12.25
2023-04-18T18:49:58.312Z,12.19
2023-04-18T18:52:28.141Z,12.08
2023-04-18T18:54:55.839Z,11.99
2023-04-18T18:57:23.469Z,11.88
2023-04-18T18:59:51.056Z,11.78
2023-04-18T19:02:19.201Z,11.69
2023-04-18T19:04:47.677Z,11.59
2023-04-18T19:07:16.048Z,11.53
2023-04-18T19:09:43.686Z,11.45
2023-04-18T19:12:11.258Z,11.35
2023-04-18T19:14:40.232Z,11.25
2023-04-18T19:17:09.028Z,11.14
2023-04-18T19:19:36.550Z,11.04
2023-04-18T19:22:04.277Z,10.94
2023-04-18T19:24:32.125Z,10.84
2023-04-18T19:26:59.849Z,10.76
2023-04-18T19:29:27.358Z,10.70
2023-04-18T19:31:55.488Z,10.63
2023-04-18T19:34:23.143Z,10.58
2023-04-18T19:36:50.743Z,10.53
2023-04-18T19:39:18.393Z,10.50
2023-04-18T19:41:46.169Z,10.44
2023-04-18T19:44:13.687Z,10.35
2023-04-18T19:46:41.320Z,10.25
2023-04-18T19:49:08.865Z,10.20
2023-04-18T19:51:36.523Z,10.15
2023-04-18T19:54:04.750Z,10.09
2023-04-18T19:56:32.440Z,10.05
2023-04-18T19:59:00.118Z,9.99
2023-04-18T20:01:27.938Z,9.94
2023-04-18T20:03:58.669Z,9.89
2023-04-18T20:06:27.205Z,9.86
2023-04-18T20:08:55.113Z,9.83
2023-04-18T20:11:22.769Z,9.79
2023-04-18T20:13:52.311Z,9.74
2023-04-18T20:16:21.347Z,9.70
2023-04-18T20:18:51.899Z,9.66
2023-04-18T20:21:20.698Z,9.63
2023-04-18T20:23:48.282Z,9.63
2023-04-18T20:26:15.865Z,9.62
2023-04-18T20:28:43.493Z,9.58
2023-04-18T20:31:12.815Z,9.56
2023-04-18T20:33:40.411Z,9.54
2023-04-18T20:36:08.793Z,9.49
2023-04-18T20:38:36.943Z,9.49
2023-04-18T20:41:06.248Z,9.45
2023-04-18T20:43:37.349Z,9.42
2023-04-18T20:46:04.997Z,9.43
2023-04-18T20:48:32.788Z,9.41
2023-04-18T20:51:00.468Z,9.41
2023-04-18T20:53:29.112Z,9.40
2023-04-18T20:55:56.715Z,9.39
2023-04-18T20:58:24.358Z,9.33
2023-04-18T21:00:52.202Z,9.31
2023-04-18T21:03:19.884Z,9.25
2023-04-18T21:05:47.597Z,9.24
2023-04-18T21:08:15.160Z,9.19
2023-04-18T21:10:42.776Z,9.15
2023-04-18T21:13:12.735Z,9.10
2023-04-18T21:15:42.325Z,9.06
2023-04-18T21:18:10.081Z,9.03
2023-04-18T21:20:37.839Z,8.98
2023-04-18T21:23:05.448Z,8.95
2023-04-18T21:25:33.080Z,8.94
2023-04-18T21:28:00.993Z,8.92
2023-04-18T21:30:28.609Z,8.88
2023-04-18T21:32:56.239Z,8.85
2023-04-18T21:35:24.870Z,8.84
2023-04-18T21:37:52.815Z,8.82
2023-04-18T21:40:20.435Z,8.78
2023-04-18T21:42:51.585Z,8.74
2023-04-18T21:45:19.231Z,8.70
2023-04-18T21:47:47.125Z,8.66
2023-04-18T21:50:14.775Z,8.62
2023-04-18T21:52:42.431Z,8.59
2023-04-18T21:55:10.216Z,8.56
2023-04-18T21:57:37.786Z,8.50
2023-04-18T22:00:08.419Z,8.47
2023-04-18T22:02:37.741Z,8.45
2023-04-18T22:05:05.813Z,8.42
2023-04-18T22:07:40.797Z,8.38
2023-04-18T22:10:14.120Z,8.34
2023-04-18T22:12:42.538Z,8.32
2023-04-18T22:15:10.586Z,8.30
2023-04-18T22:17:38.347Z,8.30
2023-04-18T22:20:08.061Z,8.26
2023-04-18T22:22:35.669Z,8.24
2023-04-18T22:25:03.691Z,8.18
2023-04-18T22:27:31.311Z,8.15
2023-04-18T22:29:58.872Z,8.13
2023-04-18T22:32:26.509Z,8.11
2023-04-18T22:34:54.093Z,8.08
2023-04-18T22:37:21.762Z,8.07
2023-04-18T22:39:49.331Z,8.04
2023-04-18T22:42:16.855Z,8.02
2023-04-18T22:44:44.446Z,8.00
2023-04-18T22:47:12.436Z,7.98
2023-04-18T22:49:40.467Z,7.96
2023-04-18T22:52:08.416Z,7.95
2023-04-18T22:54:40.374Z,7.94
2023-04-18T22:57:09.437Z,7.90
2023-04-18T22:59:37.244Z,7.90
2023-04-18T23:02:04.876Z,7.89
2023-04-18T23:04:32.851Z,7.87
2023-04-18T23:07:00.477Z,7.85
2023-04-18T23:09:31.240Z,7.85
2023-04-18T23:11:58.895Z,7.82
2023-04-18T23:14:26.653Z,7.80
2023-04-18T23:16:54.328Z,7.77
2023-04-18T23:19:22.191Z,7.76
2023-04-18T23:21:49.957Z,7.75
2023-04-18T23:24:17.572Z,7.73
2023-04-18T23:26:45.524Z,7.70
2023-04-18T23:29:13.067Z,7.68
2023-04-18T23:31:41.088Z,7.68
2023-04-18T23:34:10.721Z,7.67
2023-04-18T23:36:40.452Z,7.65
2023-04-18T23:39:08.718Z,7.63
2023-04-18T23:41:36.303Z,7.63
2023-04-18T23:44:03.946Z,7.60
2023-04-18T23:46:31.607Z,7.60
2023-04-18T23:48:59.264Z,7.56
2023-04-18T23:51:28.113Z,7.57
2023-04-18T23:53:55.660Z,7.56
2023-04-18T23:56:23.289Z,7.54
2023-04-18T23:58:50.941Z,7.54
